createdAt,value
2019-04-29T00:00:00.736Z,15.29
2019-04-29T00:02:34.624Z,15.13
2019-04-29T00:05:05.603Z,15.03
2019-04-29T00:07:36.074Z,14.92
2019-04-29T00:10:07.343Z,14.84
2019-04-29T00:12:38.653Z,14.75
2019-04-29T00:15:10.768Z,14.68
2019-04-29T00:17:45.611Z,14.66
2019-04-29T00:20:17.808Z,14.67
2019-04-29T00:22:48.332Z,14.63
2019-04-29T00:25:19.067Z,14.62
2019-04-29T00:27:49.655Z,14.58
2019-04-29T00:30:22.172Z,14.58
2019-04-29T00:32:52.497Z,14.60
2019-04-29T00:35:23.025Z,14.64
2019-04-29T00:38:11.169Z,14.69
2019-04-29T00:40:47.126Z,14.73
2019-04-29T00:43:30.717Z,14.81
2019-04-29T00:46:01.077Z,14.84
2019-04-29T00:48:31.525Z,14.83
2019-04-29T00:51:01.993Z,14.87
2019-04-29T00:53:32.739Z,14.90
2019-04-29T00:56:03.762Z,14.90
2019-04-29T00:58:34.086Z,14.89
2019-04-29T01:01:07.020Z,14.87
2019-04-29T01:03:40.915Z,14.83
2019-04-29T01:06:09.897Z,14.78
2019-04-29T01:08:40.443Z,14.75
2019-04-29T01:11:10.867Z,14.72
2019-04-29T01:13:41.356Z,14.70
2019-04-29T01:16:11.992Z,14.66
2019-04-29T01:18:42.109Z,14.64
2019-04-29T01:21:12.629Z,14.63
2019-04-29T01:23:43.163Z,14.60
2019-04-29T01:26:18.097Z,14.61
2019-04-29T01:28:50.161Z,14.62
2019-04-29T01:31:22.053Z,14.67
2019-04-29T01:33:54.291Z,14.68
2019-04-29T01:36:29.088Z,14.66
2019-04-29T01:39:01.286Z,14.62
2019-04-29T01:41:53.113Z,14.60
2019-04-29T01:44:25.059Z,14.56
2019-04-29T01:46:55.602Z,14.50
2019-04-29T01:49:25.924Z,14.44
2019-04-29T01:51:56.655Z,14.39
2019-04-29T01:54:27.298Z,14.33
2019-04-29T01:56:57.862Z,14.30
2019-04-29T01:59:28.289Z,14.28
2019-04-29T02:01:58.711Z,14.30
2019-04-29T02:04:29.293Z,14.30
2019-04-29T02:06:59.828Z,14.26
2019-04-29T02:09:31.937Z,14.18
2019-04-29T02:12:02.421Z,14.09
2019-04-29T02:14:32.747Z,14.04
2019-04-29T02:17:03.374Z,13.97
2019-04-29T02:19:34.306Z,13.88
2019-04-29T02:22:09.492Z,13.84
2019-04-29T02:24:41.382Z,13.84
2019-04-29T02:27:11.870Z,13.78
2019-04-29T02:29:42.320Z,13.71
2019-04-29T02:32:13.057Z,13.64
2019-04-29T02:34:43.319Z,13.59
2019-04-29T02:37:15.385Z,13.58
2019-04-29T02:39:47.702Z,13.64
2019-04-29T02:42:36.660Z,13.71
2019-04-29T02:45:08.789Z,13.75
2019-04-29T02:47:39.103Z,13.76
2019-04-29T02:50:09.738Z,13.80
2019-04-29T02:52:40.367Z,13.84
2019-04-29T02:55:12.377Z,13.86
2019-04-29T02:57:47.201Z,13.91
2019-04-29T03:00:24.540Z,13.97
2019-04-29T03:02:56.986Z,13.99
2019-04-29T03:05:32.205Z,13.98
2019-04-29T03:08:02.537Z,13.97
2019-04-29T03:10:33.038Z,13.98
2019-04-29T03:13:03.538Z,14.02
2019-04-29T03:15:34.874Z,14.08
2019-04-29T03:18:05.282Z,14.09
2019-04-29T03:20:49.609Z,14.09
2019-04-29T03:23:21.601Z,14.08
2019-04-29T03:25:52.197Z,14.07
2019-04-29T03:28:23.034Z,14.05
2019-04-29T03:30:53.333Z,14.00
2019-04-29T03:33:23.880Z,13.92
2019-04-29T03:35:54.412Z,13.86
2019-04-29T03:38:25.029Z,13.82
2019-04-29T03:40:55.334Z,13.79
2019-04-29T03:43:25.958Z,13.77
2019-04-29T03:45:56.688Z,13.76
2019-04-29T03:48:27.012Z,13.73
2019-04-29T03:50:57.616Z,13.73
2019-04-29T03:53:28.673Z,13.74
2019-04-29T03:55:59.392Z,13.80
2019-04-29T03:58:30.914Z,13.88
2019-04-29T04:01:12.091Z,13.93
2019-04-29T04:03:44.287Z,14.00
2019-04-29T04:06:28.669Z,14.08
2019-04-29T04:09:06.060Z,14.19
2019-04-29T04:11:34.195Z,14.30
2019-04-29T04:14:04.527Z,14.36
2019-04-29T04:16:52.975Z,14.43
2019-04-29T04:19:24.394Z,14.49
2019-04-29T04:21:54.615Z,14.57
2019-04-29T04:24:25.039Z,14.60
2019-04-29T04:26:56.635Z,14.66
2019-04-29T04:29:27.246Z,14.70
2019-04-29T04:31:57.856Z,14.64
2019-04-29T04:34:28.325Z,14.67
2019-04-29T04:37:00.423Z,14.80
2019-04-29T04:39:33.479Z,14.89
2019-04-29T04:42:04.128Z,14.95
2019-04-29T04:44:50.086Z,15.03
2019-04-29T04:47:20.459Z,15.13
2019-04-29T04:49:50.987Z,15.26
2019-04-29T04:52:21.701Z,15.36
2019-04-29T04:54:53.975Z,15.48
2019-04-29T04:57:24.537Z,15.61
2019-04-29T04:59:56.083Z,15.70
2019-04-29T05:02:26.988Z,15.79
2019-04-29T05:04:57.318Z,15.88
2019-04-29T05:07:27.939Z,15.95
2019-04-29T05:09:58.329Z,16.07
2019-04-29T05:12:28.753Z,16.22
2019-04-29T05:14:59.329Z,16.40
2019-04-29T05:17:29.859Z,16.63
2019-04-29T05:20:01.160Z,16.89
2019-04-29T05:22:31.604Z,17.13
2019-04-29T05:25:02.155Z,17.31
2019-04-29T05:27:32.796Z,17.52
2019-04-29T05:30:03.272Z,17.76
2019-04-29T05:32:33.750Z,17.99
2019-04-29T05:35:09.382Z,18.25
2019-04-29T05:37:56.410Z,18.53
2019-04-29T05:40:45.360Z,18.72
2019-04-29T05:43:17.529Z,18.81
2019-04-29T05:45:52.668Z,18.86
2019-04-29T05:48:23.030Z,18.98
2019-04-29T05:51:11.479Z,19.07
2019-04-29T05:53:54.801Z,19.14
2019-04-29T05:56:22.423Z,19.12
2019-04-29T05:58:53.041Z,19.28
2019-04-29T06:01:24.915Z,19.25
2019-04-29T06:03:55.609Z,19.21
2019-04-29T06:06:25.971Z,19.16
2019-04-29T06:08:56.675Z,19.16
2019-04-29T06:11:27.249Z,19.03
2019-04-29T06:13:57.807Z,18.94
2019-04-29T06:16:28.298Z,18.78
2019-04-29T06:19:00.439Z,19.03
2019-04-29T06:21:30.988Z,19.21
2019-04-29T06:24:04.425Z,19.46
2019-04-29T06:26:33.522Z,19.76
2019-04-29T06:29:05.818Z,19.94
2019-04-29T06:31:36.281Z,20.18
2019-04-29T06:34:06.686Z,20.39
2019-04-29T06:36:37.331Z,20.60
2019-04-29T06:39:08.007Z,20.71
2019-04-29T06:41:40.494Z,20.92
2019-04-29T06:44:16.050Z,21.05
2019-04-29T06:46:42.268Z,21.08
2019-04-29T06:49:12.910Z,21.40
2019-04-29T06:51:43.330Z,21.55
2019-04-29T06:54:13.513Z,21.58
2019-04-29T06:56:44.118Z,21.67
2019-04-29T06:59:14.693Z,21.81
2019-04-29T07:01:44.951Z,21.97
2019-04-29T07:04:15.531Z,22.15
2019-04-29T07:06:56.711Z,22.20
2019-04-29T07:09:18.297Z,21.97
2019-04-29T07:11:48.514Z,21.81
2019-04-29T07:14:19.295Z,21.69
2019-04-29T07:16:49.470Z,22.03
2019-04-29T07:19:22.241Z,22.19
2019-04-29T07:21:55.004Z,22.01
2019-04-29T07:24:24.547Z,21.95
2019-04-29T07:26:57.869Z,21.73
2019-04-29T07:29:32.105Z,21.40
2019-04-29T07:31:59.504Z,21.31
2019-04-29T07:34:33.799Z,21.33
2019-04-29T07:37:02.342Z,21.15
2019-04-29T07:39:33.752Z,21.16
2019-04-29T07:42:04.381Z,21.20
2019-04-29T07:44:43.728Z,21.15
2019-04-29T07:47:08.538Z,21.09
2019-04-29T07:49:38.685Z,21.00
2019-04-29T07:52:09.777Z,21.08
2019-04-29T07:54:41.367Z,21.19
2019-04-29T07:57:12.470Z,21.44
2019-04-29T07:59:44.132Z,21.56
2019-04-29T08:02:14.753Z,21.76
2019-04-29T08:04:45.488Z,21.95
2019-04-29T08:07:15.853Z,22.32
2019-04-29T08:09:46.132Z,22.76
2019-04-29T08:12:17.081Z,23.17
2019-04-29T08:14:47.599Z,23.54
2019-04-29T08:17:18.132Z,23.86
2019-04-29T08:19:49.069Z,24.05
2019-04-29T08:22:22.801Z,24.13
2019-04-29T08:24:52.219Z,24.01
2019-04-29T08:27:22.798Z,23.69
2019-04-29T08:29:54.500Z,23.19
2019-04-29T08:32:24.786Z,22.94
2019-04-29T08:34:57.959Z,22.74
2019-04-29T08:37:27.578Z,22.56
2019-04-29T08:40:14.718Z,22.51
2019-04-29T08:42:31.747Z,22.33
2019-04-29T08:45:03.708Z,22.24
2019-04-29T08:47:38.954Z,21.98
2019-04-29T08:50:09.123Z,21.88
2019-04-29T08:52:40.112Z,21.97
2019-04-29T08:55:10.924Z,22.09
2019-04-29T08:57:41.540Z,22.16
2019-04-29T09:00:14.093Z,22.18
2019-04-29T09:02:46.954Z,22.06
2019-04-29T09:05:16.798Z,22.05
2019-04-29T09:07:47.575Z,22.07
2019-04-29T09:10:17.777Z,22.02
2019-04-29T09:12:48.387Z,22.06
2019-04-29T09:15:19.685Z,22.14
2019-04-29T09:17:50.059Z,22.23
2019-04-29T09:20:20.796Z,22.21
2019-04-29T09:22:53.025Z,22.13
2019-04-29T09:25:28.106Z,21.90
2019-04-29T09:28:05.819Z,21.65
2019-04-29T09:30:38.660Z,21.45
2019-04-29T09:33:13.173Z,21.36
2019-04-29T09:35:41.470Z,21.18
2019-04-29T09:38:12.068Z,20.97
2019-04-29T09:40:54.407Z,20.78
2019-04-29T09:43:39.859Z,20.54
2019-04-29T09:46:11.970Z,20.32
2019-04-29T09:48:42.625Z,20.13
2019-04-29T09:51:17.918Z,20.00
2019-04-29T09:53:46.551Z,19.87
2019-04-29T09:56:16.975Z,19.70
2019-04-29T09:58:47.644Z,19.63
2019-04-29T10:01:20.915Z,19.50
2019-04-29T10:04:02.074Z,19.30
2019-04-29T10:06:40.306Z,19.30
2019-04-29T10:09:11.075Z,19.34
2019-04-29T10:11:41.562Z,19.50
2019-04-29T10:14:12.099Z,19.76
2019-04-29T10:16:44.342Z,20.08
2019-04-29T10:19:28.486Z,20.44
2019-04-29T10:21:58.974Z,20.76
2019-04-29T10:24:30.739Z,21.02
2019-04-29T10:27:02.349Z,21.22
2019-04-29T10:29:34.530Z,21.31
2019-04-29T10:32:08.294Z,21.51
2019-04-29T10:34:38.607Z,21.60
2019-04-29T10:37:08.806Z,21.65
2019-04-29T10:39:49.994Z,21.66
2019-04-29T10:42:27.778Z,21.65
2019-04-29T10:45:08.551Z,21.65
2019-04-29T10:47:40.548Z,21.45
2019-04-29T10:50:15.354Z,20.47
2019-04-29T10:52:50.945Z,19.78
2019-04-29T10:55:25.579Z,19.22
2019-04-29T10:57:56.647Z,19.02
2019-04-29T11:00:47.187Z,18.89
2019-04-29T11:03:20.722Z,18.82
2019-04-29T11:06:00.621Z,18.80
2019-04-29T11:08:27.330Z,18.70
2019-04-29T11:11:02.297Z,18.67
2019-04-29T11:13:29.821Z,18.63
2019-04-29T11:16:00.828Z,18.50
2019-04-29T11:18:31.762Z,18.35
2019-04-29T11:21:02.482Z,18.36
2019-04-29T11:23:37.576Z,18.36
2019-04-29T11:26:16.044Z,18.32
2019-04-29T11:28:51.164Z,18.25
2019-04-29T11:31:21.070Z,18.25
2019-04-29T11:33:53.197Z,18.15
2019-04-29T11:36:27.657Z,18.24
2019-04-29T11:38:57.867Z,18.05
2019-04-29T11:41:28.777Z,17.86
2019-04-29T11:43:59.367Z,17.81
2019-04-29T11:46:30.280Z,17.74
2019-04-29T11:49:02.029Z,17.53
2019-04-29T11:52:04.879Z,17.49
2019-04-29T11:54:17.942Z,17.36
2019-04-29T11:56:45.665Z,17.35
2019-04-29T11:59:21.868Z,17.28
2019-04-29T12:02:02.592Z,17.30
2019-04-29T12:04:37.326Z,17.37
2019-04-29T12:07:07.623Z,17.27
2019-04-29T12:09:38.275Z,17.32
2019-04-29T12:12:12.886Z,17.26
2019-04-29T12:14:43.323Z,17.24
2019-04-29T12:17:15.646Z,17.19
2019-04-29T12:19:54.050Z,17.15
2019-04-29T12:22:30.213Z,17.07
2019-04-29T12:24:57.432Z,16.94
2019-04-29T12:27:29.310Z,16.87
2019-04-29T12:29:59.970Z,16.87
2019-04-29T12:32:32.136Z,16.91
2019-04-29T12:35:04.154Z,16.96
2019-04-29T12:37:39.129Z,17.07
2019-04-29T12:40:21.102Z,17.02
2019-04-29T12:43:05.270Z,17.10
2019-04-29T12:45:53.806Z,17.15
2019-04-29T12:48:25.296Z,17.17
2019-04-29T12:50:57.567Z,17.11
2019-04-29T12:53:28.171Z,17.21
2019-04-29T12:55:58.802Z,17.36
2019-04-29T12:58:29.163Z,17.55
2019-04-29T13:01:05.992Z,17.52
2019-04-29T13:03:43.904Z,17.63
2019-04-29T13:06:23.242Z,17.82
2019-04-29T13:08:49.561Z,17.54
2019-04-29T13:11:22.366Z,17.23
2019-04-29T13:13:56.568Z,17.18
2019-04-29T13:16:26.336Z,17.14
2019-04-29T13:19:14.477Z,16.93
2019-04-29T13:21:42.480Z,16.88
2019-04-29T13:24:22.930Z,17.04
2019-04-29T13:26:45.142Z,16.85
2019-04-29T13:29:26.798Z,16.59
2019-04-29T13:31:47.617Z,16.78
2019-04-29T13:34:24.059Z,16.92
2019-04-29T13:37:06.466Z,17.08
2019-04-29T13:39:38.323Z,16.94
2019-04-29T13:41:58.261Z,16.75
2019-04-29T13:44:28.334Z,16.74
2019-04-29T13:47:00.472Z,16.62
2019-04-29T13:49:41.544Z,16.10
2019-04-29T13:52:12.936Z,15.75
2019-04-29T13:54:44.281Z,15.48
2019-04-29T13:57:15.966Z,15.44
2019-04-29T13:59:50.367Z,15.33
2019-04-29T14:02:32.271Z,15.03
2019-04-29T14:05:02.254Z,14.82
2019-04-29T14:07:32.926Z,14.65
2019-04-29T14:10:04.264Z,14.50
2019-04-29T14:13:00.726Z,14.44
2019-04-29T14:15:06.757Z,14.45
2019-04-29T14:17:37.398Z,14.39
2019-04-29T14:20:10.589Z,14.44
2019-04-29T14:22:40.333Z,14.54
2019-04-29T14:25:13.428Z,14.67
2019-04-29T14:27:43.392Z,14.71
2019-04-29T14:30:15.806Z,14.46
2019-04-29T14:32:49.518Z,14.29
2019-04-29T14:35:29.169Z,14.16
2019-04-29T14:38:04.701Z,14.07
2019-04-29T14:40:32.302Z,14.05
2019-04-29T14:43:28.682Z,14.02
2019-04-29T14:45:54.994Z,14.05
2019-04-29T14:48:41.321Z,14.07
2019-04-29T14:50:59.147Z,14.06
2019-04-29T14:53:29.674Z,18.73
2019-04-29T14:56:00.103Z,17.66
2019-04-29T14:58:31.043Z,17.21
2019-04-29T15:01:03.851Z,17.20
2019-04-29T15:03:51.756Z,17.38
2019-04-29T15:06:22.719Z,15.52
2019-04-29T15:08:53.866Z,14.18
2019-04-29T15:11:32.160Z,13.94
2019-04-29T15:14:22.993Z,13.91
2019-04-29T15:17:05.264Z,13.93
2019-04-29T15:19:55.813Z,13.88
2019-04-29T15:22:30.546Z,13.75
2019-04-29T15:25:00.783Z,13.88
2019-04-29T15:27:31.373Z,13.90
2019-04-29T15:30:01.799Z,13.88
2019-04-29T15:32:34.232Z,13.84
2019-04-29T15:35:07.483Z,13.88
2019-04-29T15:37:40.475Z,13.76
2019-04-29T15:40:11.245Z,15.61
2019-04-29T15:42:42.788Z,15.66
2019-04-29T15:45:14.000Z,15.92
2019-04-29T15:47:45.814Z,15.99
2019-04-29T15:50:19.262Z,15.91
2019-04-29T15:52:49.167Z,15.62
2019-04-29T15:55:19.741Z,15.44
2019-04-29T15:57:52.009Z,15.13
2019-04-29T16:00:23.365Z,14.96
2019-04-29T16:02:54.384Z,15.08
2019-04-29T16:05:26.400Z,15.12
2019-04-29T16:07:59.760Z,14.89
2019-04-29T16:10:43.552Z,14.74
2019-04-29T16:13:15.658Z,14.59
2019-04-29T16:15:46.039Z,13.26
2019-04-29T16:18:17.338Z,13.24
2019-04-29T16:20:53.708Z,14.11
2019-04-29T16:23:20.187Z,14.44
2019-04-29T16:25:52.056Z,14.65
2019-04-29T16:28:24.259Z,14.84
2019-04-29T16:30:57.803Z,14.89
2019-04-29T16:33:28.720Z,15.05
2019-04-29T16:36:04.890Z,14.95
2019-04-29T16:38:31.342Z,14.77
2019-04-29T16:41:20.675Z,14.94
2019-04-29T16:43:53.642Z,15.17
2019-04-29T16:46:35.384Z,15.13
2019-04-29T16:48:57.741Z,13.45
2019-04-29T16:51:28.316Z,13.03
2019-04-29T16:53:59.095Z,13.97
2019-04-29T16:56:31.055Z,14.24
2019-04-29T16:59:08.828Z,14.63
2019-04-29T17:01:34.107Z,14.63
2019-04-29T17:04:05.597Z,14.65
2019-04-29T17:06:41.626Z,14.44
2019-04-29T17:09:27.778Z,14.38
2019-04-29T17:11:59.227Z,14.18
2019-04-29T17:14:29.726Z,14.16
2019-04-29T17:17:00.375Z,14.02
2019-04-29T17:19:31.007Z,14.03
2019-04-29T17:22:24.222Z,13.98
2019-04-29T17:24:33.913Z,14.02
2019-04-29T17:27:15.040Z,13.92
2019-04-29T17:29:55.366Z,13.88
2019-04-29T17:32:44.945Z,14.24
2019-04-29T17:35:21.147Z,15.89
2019-04-29T17:37:46.175Z,16.27
2019-04-29T17:40:19.385Z,16.02
2019-04-29T17:42:51.606Z,15.72
2019-04-29T17:45:30.642Z,15.27
2019-04-29T17:48:03.342Z,15.04
2019-04-29T17:50:39.276Z,14.71
2019-04-29T17:53:09.667Z,13.09
2019-04-29T17:55:42.466Z,13.90
2019-04-29T17:58:19.817Z,14.03
2019-04-29T18:00:56.287Z,13.99
2019-04-29T18:03:46.084Z,14.09
2019-04-29T18:06:24.267Z,14.04
2019-04-29T18:08:51.869Z,13.91
2019-04-29T18:11:22.384Z,13.65
2019-04-29T18:13:56.963Z,13.74
2019-04-29T18:16:28.499Z,13.64
2019-04-29T18:19:01.848Z,13.75
2019-04-29T18:21:37.232Z,13.72
2019-04-29T18:24:11.606Z,13.82
2019-04-29T18:26:52.993Z,13.68
2019-04-29T18:29:23.568Z,13.66
2019-04-29T18:31:55.630Z,13.68
2019-04-29T18:34:29.434Z,13.59
2019-04-29T18:37:00.350Z,13.70
2019-04-29T18:39:31.618Z,13.65
2019-04-29T18:42:03.324Z,13.59
2019-04-29T18:44:35.786Z,13.68
2019-04-29T18:47:06.811Z,13.68
2019-04-29T18:49:37.559Z,13.60
2019-04-29T18:52:08.278Z,13.50
2019-04-29T18:54:38.939Z,13.47
2019-04-29T18:57:09.953Z,13.33
2019-04-29T18:59:42.093Z,13.52
2019-04-29T19:02:14.885Z,13.31
2019-04-29T19:04:53.319Z,13.27
2019-04-29T19:07:20.372Z,13.26
2019-04-29T19:09:50.725Z,13.42
2019-04-29T19:12:21.563Z,13.32
2019-04-29T19:14:51.786Z,13.44
2019-04-29T19:17:22.619Z,13.21
2019-04-29T19:19:52.899Z,13.12
2019-04-29T19:22:23.623Z,13.08
2019-04-29T19:24:55.795Z,12.91
2019-04-29T19:27:30.515Z,12.91
2019-04-29T19:29:59.435Z,12.84
2019-04-29T19:32:30.064Z,12.88
2019-04-29T19:35:00.371Z,12.96
2019-04-29T19:37:32.531Z,12.94
2019-04-29T19:40:04.917Z,12.97
2019-04-29T19:42:39.702Z,12.90
2019-04-29T19:45:13.237Z,12.86
2019-04-29T19:47:41.183Z,12.93
2019-04-29T19:50:16.565Z,12.78
2019-04-29T19:52:45.387Z,12.90
2019-04-29T19:55:15.799Z,13.02
2019-04-29T19:57:48.376Z,12.91
2019-04-29T20:00:18.781Z,13.01
2019-04-29T20:02:50.652Z,13.09
2019-04-29T20:05:27.896Z,12.89
2019-04-29T20:07:58.354Z,12.93
2019-04-29T20:10:29.346Z,12.81
2019-04-29T20:13:00.346Z,12.83
2019-04-29T20:15:35.217Z,12.88
2019-04-29T20:18:34.472Z,12.79
2019-04-29T20:21:08.439Z,12.80
2019-04-29T20:23:37.000Z,12.74
2019-04-29T20:26:14.000Z,12.55
2019-04-29T20:28:37.639Z,12.42
2019-04-29T20:31:16.391Z,12.56
2019-04-29T20:33:42.024Z,12.70
2019-04-29T20:36:12.876Z,12.76
2019-04-29T20:38:45.305Z,12.80
2019-04-29T20:41:21.012Z,12.74
2019-04-29T20:43:47.784Z,12.67
2019-04-29T20:46:18.857Z,12.66
2019-04-29T20:48:54.886Z,12.76
2019-04-29T20:51:23.311Z,12.74
2019-04-29T20:54:15.878Z,12.68
2019-04-29T20:56:46.952Z,12.66
2019-04-29T20:59:16.581Z,12.84
2019-04-29T21:01:49.001Z,12.82
2019-04-29T21:04:31.103Z,12.94
2019-04-29T21:07:01.859Z,12.77
2019-04-29T21:09:27.551Z,12.81
2019-04-29T21:12:00.099Z,12.80
2019-04-29T21:14:34.082Z,12.76
2019-04-29T21:17:09.445Z,12.68
2019-04-29T21:19:36.432Z,12.51
2019-04-29T21:22:06.903Z,12.49
2019-04-29T21:24:37.592Z,12.44
2019-04-29T21:27:08.105Z,12.52
2019-04-29T21:29:38.727Z,12.60
2019-04-29T21:32:09.593Z,12.61
2019-04-29T21:34:41.478Z,12.60
2019-04-29T21:37:16.632Z,12.51
2019-04-29T21:39:48.552Z,12.42
2019-04-29T21:42:29.779Z,12.38
2019-04-29T21:44:58.615Z,12.37
2019-04-29T21:47:32.023Z,12.35
2019-04-29T21:50:00.121Z,12.41
2019-04-29T21:52:30.759Z,12.40
2019-04-29T21:55:01.049Z,12.36
2019-04-29T21:57:31.918Z,12.33
2019-04-29T22:00:02.625Z,12.30
2019-04-29T22:02:35.822Z,12.32
2019-04-29T22:05:09.680Z,12.35
2019-04-29T22:07:39.868Z,12.43
2019-04-29T22:10:11.123Z,12.39
2019-04-29T22:12:41.402Z,12.31
2019-04-29T22:15:13.510Z,12.41
2019-04-29T22:17:54.368Z,12.40
2019-04-29T22:20:16.543Z,12.36
2019-04-29T22:22:47.811Z,12.36
2019-04-29T22:25:18.388Z,12.42
2019-04-29T22:27:49.875Z,12.38
2019-04-29T22:30:20.934Z,12.31
2019-04-29T22:32:51.873Z,12.28
2019-04-29T22:35:25.184Z,12.27
2019-04-29T22:37:55.600Z,12.29
2019-04-29T22:40:26.476Z,12.23
2019-04-29T22:43:08.393Z,12.15
2019-04-29T22:45:35.468Z,12.28
2019-04-29T22:48:14.888Z,12.35
2019-04-29T22:50:39.465Z,12.42
2019-04-29T22:53:09.849Z,12.58
2019-04-29T22:55:40.387Z,12.55
2019-04-29T22:58:12.209Z,12.44
2019-04-29T23:00:42.857Z,12.49
2019-04-29T23:03:13.225Z,12.48
2019-04-29T23:05:46.140Z,12.53
2019-04-29T23:08:16.183Z,12.68
2019-04-29T23:10:46.810Z,12.72
2019-04-29T23:13:17.335Z,12.65
2019-04-29T23:15:47.863Z,12.73
2019-04-29T23:18:24.672Z,12.86
2019-04-29T23:21:08.651Z,12.93
2019-04-29T23:23:40.790Z,12.88
2019-04-29T23:26:11.287Z,12.87
2019-04-29T23:28:42.050Z,12.86
2019-04-29T23:31:12.845Z,13.27
2019-04-29T23:33:43.389Z,13.40
2019-04-29T23:36:15.838Z,13.64
2019-04-29T23:38:46.578Z,13.66
2019-04-29T23:41:17.356Z,13.87
2019-04-29T23:43:47.738Z,13.79
2019-04-29T23:46:18.155Z,13.63
2019-04-29T23:48:48.901Z,13.88
2019-04-29T23:51:19.677Z,16.21
2019-04-29T23:53:50.982Z,18.71
2019-04-29T23:56:23.904Z,18.45
2019-04-29T23:58:58.902Z,18.31
